createdAt,value
2018-11-10T00:00:20.566Z,11.80
2018-11-10T00:02:50.358Z,11.80
2018-11-10T00:05:20.460Z,11.90
2018-11-10T00:07:49.705Z,11.90
2018-11-10T00:10:19.549Z,12.00
2018-11-10T00:12:49.164Z,12.10
2018-11-10T00:15:18.409Z,12.00
2018-11-10T00:17:47.735Z,11.90
2018-11-10T00:20:16.960Z,12.10
2018-11-10T00:22:46.251Z,12.00
2018-11-10T00:25:15.814Z,12.00
2018-11-10T00:27:46.136Z,12.00
2018-11-10T00:30:16.702Z,12.00
2018-11-10T00:32:46.286Z,12.00
2018-11-10T00:35:15.482Z,12.10
2018-11-10T00:37:44.721Z,12.00
2018-11-10T00:40:15.202Z,12.00
2018-11-10T00:42:44.886Z,12.10
2018-11-10T00:45:14.194Z,12.10
2018-11-10T00:47:43.823Z,12.00
2018-11-10T00:50:13.035Z,12.00
2018-11-10T00:52:42.416Z,12.00
2018-11-10T00:55:11.726Z,12.00
2018-11-10T00:57:40.919Z,12.00
2018-11-10T01:00:11.748Z,11.90
2018-11-10T01:02:41.674Z,11.90
2018-11-10T01:05:10.969Z,12.00
2018-11-10T01:07:40.630Z,11.90
2018-11-10T01:10:11.712Z,11.90
2018-11-10T01:12:41.175Z,11.60
2018-11-10T01:15:15.311Z,11.60
2018-11-10T01:17:45.262Z,11.50
2018-11-10T01:20:14.943Z,11.50
2018-11-10T01:22:44.238Z,11.40
2018-11-10T01:25:13.432Z,11.50
2018-11-10T01:27:42.819Z,11.40
2018-11-10T01:30:14.124Z,11.40
2018-11-10T01:32:44.210Z,11.30
2018-11-10T01:35:14.592Z,11.30
2018-11-10T01:37:44.019Z,11.20
2018-11-10T01:40:14.270Z,11.10
2018-11-10T01:42:44.990Z,11.10
2018-11-10T01:45:16.226Z,11.00
2018-11-10T01:47:45.994Z,11.00
2018-11-10T01:50:15.268Z,11.00
2018-11-10T01:52:44.687Z,10.90
2018-11-10T01:55:13.990Z,10.70
2018-11-10T01:57:43.672Z,10.70
2018-11-10T02:00:16.027Z,10.70
2018-11-10T02:02:45.910Z,10.80
2018-11-10T02:05:15.618Z,10.80
2018-11-10T02:07:44.916Z,10.80
2018-11-10T02:10:14.488Z,10.90
2018-11-10T02:12:43.841Z,11.00
2018-11-10T02:15:15.977Z,11.00
2018-11-10T02:17:48.174Z,10.90
2018-11-10T02:20:17.472Z,11.00
2018-11-10T02:22:46.730Z,11.00
2018-11-10T02:25:15.996Z,10.90
2018-11-10T02:27:45.378Z,11.00
2018-11-10T02:30:14.568Z,10.90
2018-11-10T02:32:43.806Z,10.90
2018-11-10T02:35:13.085Z,10.80
2018-11-10T02:37:42.430Z,10.80
2018-11-10T02:40:13.802Z,10.70
2018-11-10T02:42:43.393Z,10.70
2018-11-10T02:45:13.835Z,10.70
2018-11-10T02:47:43.957Z,10.70
2018-11-10T02:50:13.123Z,10.80
2018-11-10T02:52:42.333Z,10.90
2018-11-10T02:55:12.046Z,11.00
2018-11-10T02:57:41.745Z,11.10
2018-11-10T03:00:12.461Z,11.00
2018-11-10T03:02:41.652Z,11.10
2018-11-10T03:05:11.282Z,11.10
2018-11-10T03:07:40.642Z,11.00
2018-11-10T03:10:10.895Z,11.20
2018-11-10T03:12:40.938Z,11.20
2018-11-10T03:15:10.927Z,11.30
2018-11-10T03:17:40.352Z,11.30
2018-11-10T03:20:11.766Z,11.20
2018-11-10T03:22:41.235Z,11.30
2018-11-10T03:25:11.116Z,11.30
2018-11-10T03:27:40.728Z,11.40
2018-11-10T03:30:10.253Z,11.40
2018-11-10T03:32:39.535Z,11.40
2018-11-10T03:35:09.412Z,11.50
2018-11-10T03:37:39.004Z,11.40
2018-11-10T03:40:09.269Z,11.50
2018-11-10T03:42:38.952Z,11.60
2018-11-10T03:45:09.421Z,11.60
2018-11-10T03:47:38.817Z,11.60
2018-11-10T03:50:08.743Z,11.60
2018-11-10T03:52:37.985Z,11.70
2018-11-10T03:55:07.993Z,11.70
2018-11-10T03:57:37.171Z,11.70
2018-11-10T04:00:09.947Z,11.70
2018-11-10T04:02:39.669Z,11.80
2018-11-10T04:05:09.547Z,11.70
2018-11-10T04:07:38.941Z,11.70
2018-11-10T04:10:08.303Z,11.60
2018-11-10T04:12:37.527Z,11.60
2018-11-10T04:15:06.813Z,11.70
2018-11-10T04:17:36.333Z,11.70
2018-11-10T04:20:06.806Z,11.70
2018-11-10T04:22:36.955Z,11.50
2018-11-10T04:25:09.374Z,11.70
2018-11-10T04:27:38.587Z,11.60
2018-11-10T04:30:08.966Z,11.60
2018-11-10T04:32:38.415Z,11.60
2018-11-10T04:35:08.129Z,11.70
2018-11-10T04:37:37.667Z,11.80
2018-11-10T04:40:07.871Z,11.80
2018-11-10T04:42:37.099Z,11.90
2018-11-10T04:45:07.599Z,12.00
2018-11-10T04:47:37.451Z,12.00
2018-11-10T04:50:07.906Z,12.10
2018-11-10T04:52:37.137Z,12.20
2018-11-10T04:55:06.705Z,12.10
2018-11-10T04:57:35.897Z,12.10
2018-11-10T05:00:07.039Z,12.10
2018-11-10T05:02:36.211Z,12.00
2018-11-10T05:05:06.010Z,12.00
2018-11-10T05:07:35.167Z,12.00
2018-11-10T05:10:04.600Z,12.00
2018-11-10T05:12:33.822Z,12.00
2018-11-10T05:15:02.979Z,11.90
2018-11-10T05:17:32.430Z,12.00
2018-11-10T05:20:01.758Z,12.00
2018-11-10T05:22:31.007Z,12.00
2018-11-10T05:25:00.325Z,11.80
2018-11-10T05:27:29.797Z,11.70
2018-11-10T05:29:59.549Z,11.60
2018-11-10T05:32:28.934Z,11.70
2018-11-10T05:34:58.250Z,11.60
2018-11-10T05:37:27.621Z,11.60
2018-11-10T05:39:56.799Z,11.60
2018-11-10T05:42:26.123Z,11.70
2018-11-10T05:44:55.383Z,11.70
2018-11-10T05:47:24.773Z,11.90
2018-11-10T05:49:53.965Z,11.80
2018-11-10T05:52:23.053Z,11.90
2018-11-10T05:54:52.271Z,12.00
2018-11-10T05:57:21.497Z,12.10
2018-11-10T05:59:50.621Z,12.10
2018-11-10T06:02:20.238Z,12.10
2018-11-10T06:04:49.610Z,12.20
2018-11-10T06:07:22.442Z,12.20
2018-11-10T06:09:52.536Z,12.30
2018-11-10T06:12:21.577Z,12.30
2018-11-10T06:14:50.573Z,12.30
2018-11-10T06:17:19.635Z,12.30
2018-11-10T06:19:48.741Z,12.40
2018-11-10T06:22:17.868Z,12.30
2018-11-10T06:24:47.274Z,12.30
2018-11-10T06:27:16.388Z,12.20
2018-11-10T06:29:45.466Z,12.20
2018-11-10T06:32:14.608Z,12.30
2018-11-10T06:34:43.950Z,12.30
2018-11-10T06:37:13.070Z,12.30
2018-11-10T06:39:42.310Z,12.20
2018-11-10T06:42:12.038Z,12.20
2018-11-10T06:44:41.573Z,12.30
2018-11-10T06:47:11.498Z,12.20
2018-11-10T06:49:40.718Z,12.20
2018-11-10T06:52:10.634Z,12.20
2018-11-10T06:54:40.373Z,12.20
2018-11-10T06:57:10.001Z,12.20
2018-11-10T06:59:39.898Z,12.20
2018-11-10T07:02:09.752Z,12.20
2018-11-10T07:04:39.507Z,12.20
2018-11-10T07:07:09.307Z,12.20
2018-11-10T07:09:39.198Z,12.20
2018-11-10T07:12:08.952Z,12.10
2018-11-10T07:14:38.597Z,12.10
2018-11-10T07:17:08.394Z,12.20
2018-11-10T07:19:38.400Z,12.10
2018-11-10T07:22:08.064Z,12.20
2018-11-10T07:24:38.081Z,12.20
2018-11-10T07:27:08.260Z,12.20
2018-11-10T07:29:40.884Z,12.20
2018-11-10T07:32:11.842Z,12.30
2018-11-10T07:34:41.320Z,12.30
2018-11-10T07:37:12.258Z,12.40
2018-11-10T07:39:42.155Z,12.40
2018-11-10T07:42:12.563Z,12.40
2018-11-10T07:44:42.196Z,12.30
2018-11-10T07:47:13.866Z,12.40
2018-11-10T07:49:43.824Z,12.30
2018-11-10T07:52:13.763Z,12.20
2018-11-10T07:54:44.012Z,12.30
2018-11-10T07:57:13.470Z,12.10
2018-11-10T07:59:43.534Z,12.20
2018-11-10T08:02:13.332Z,12.30
2018-11-10T08:04:43.548Z,12.30
2018-11-10T08:07:13.519Z,12.20
2018-11-10T08:09:43.404Z,12.30
2018-11-10T08:12:13.351Z,12.40
2018-11-10T08:14:43.804Z,12.40
2018-11-10T08:17:13.740Z,12.40
2018-11-10T08:19:44.771Z,12.40
2018-11-10T08:22:16.044Z,12.40
2018-11-10T08:24:45.825Z,12.40
2018-11-10T08:27:15.934Z,12.40
2018-11-10T08:29:46.554Z,12.30
2018-11-10T08:32:16.188Z,12.30
2018-11-10T08:34:46.446Z,12.30
2018-11-10T08:37:16.206Z,12.30
2018-11-10T08:39:47.741Z,12.40
2018-11-10T08:42:17.794Z,12.40
2018-11-10T08:44:48.787Z,12.40
2018-11-10T08:47:19.190Z,12.30
2018-11-10T08:49:49.279Z,12.40
2018-11-10T08:52:19.053Z,12.40
2018-11-10T08:54:48.640Z,12.40
2018-11-10T08:57:18.437Z,12.50
2018-11-10T08:59:48.393Z,12.40
2018-11-10T09:02:18.378Z,12.40
2018-11-10T09:04:48.634Z,12.50
2018-11-10T09:07:19.070Z,12.40
2018-11-10T09:09:48.628Z,12.30
2018-11-10T09:12:18.868Z,12.40
2018-11-10T09:14:48.670Z,12.40
2018-11-10T09:17:19.190Z,12.40
2018-11-10T09:19:49.309Z,12.30
2018-11-10T09:22:19.013Z,12.40
2018-11-10T09:24:48.948Z,12.40
2018-11-10T09:27:18.702Z,12.40
2018-11-10T09:29:50.125Z,12.50
2018-11-10T09:32:20.696Z,12.50
2018-11-10T09:34:51.021Z,12.50
2018-11-10T09:37:21.107Z,12.60
2018-11-10T09:39:51.009Z,12.50
2018-11-10T09:42:21.201Z,12.50
2018-11-10T09:44:50.951Z,12.70
2018-11-10T09:47:21.078Z,12.80
2018-11-10T09:49:51.082Z,12.90
2018-11-10T09:52:23.242Z,13.10
2018-11-10T09:54:53.679Z,13.00
2018-11-10T09:57:23.603Z,13.10
2018-11-10T09:59:53.421Z,13.10
2018-11-10T10:02:23.940Z,13.20
2018-11-10T10:04:53.482Z,13.20
2018-11-10T10:07:23.148Z,13.30
2018-11-10T10:09:52.917Z,13.30
2018-11-10T10:12:22.753Z,13.40
2018-11-10T10:14:52.581Z,13.40
2018-11-10T10:17:22.952Z,13.50
2018-11-10T10:19:53.635Z,13.50
2018-11-10T10:22:23.623Z,13.60
2018-11-10T10:24:53.420Z,13.60
2018-11-10T10:27:24.413Z,13.60
2018-11-10T10:29:53.929Z,13.50
2018-11-10T10:32:23.849Z,13.40
2018-11-10T10:34:54.120Z,13.50
2018-11-10T10:37:23.880Z,13.50
2018-11-10T10:39:53.725Z,13.50
2018-11-10T10:42:23.587Z,13.50
2018-11-10T10:44:53.572Z,13.60
2018-11-10T10:47:23.910Z,13.70
2018-11-10T10:49:53.651Z,13.50
2018-11-10T10:52:23.546Z,13.60
2018-11-10T10:54:53.597Z,13.70
2018-11-10T10:57:23.675Z,13.70
2018-11-10T10:59:53.651Z,13.70
2018-11-10T11:02:28.554Z,13.50
2018-11-10T11:04:59.275Z,13.50
2018-11-10T11:07:28.867Z,13.40
2018-11-10T11:09:58.585Z,13.50
2018-11-10T11:12:28.535Z,13.50
2018-11-10T11:14:59.061Z,13.40
2018-11-10T11:17:29.257Z,13.30
2018-11-10T11:19:58.956Z,13.40
2018-11-10T11:22:29.137Z,13.40
2018-11-10T11:24:59.878Z,13.40
2018-11-10T11:27:30.301Z,13.50
2018-11-10T11:30:01.111Z,13.50
2018-11-10T11:32:31.066Z,13.50
2018-11-10T11:35:01.041Z,13.60
2018-11-10T11:37:32.916Z,13.70
2018-11-10T11:40:03.591Z,13.90
2018-11-10T11:42:36.412Z,13.90
2018-11-10T11:45:08.064Z,14.00
2018-11-10T11:47:39.159Z,13.90
2018-11-10T11:50:11.412Z,13.90
2018-11-10T11:52:42.330Z,13.90
2018-11-10T11:55:13.201Z,14.10
2018-11-10T11:57:43.472Z,13.90
2018-11-10T12:00:16.101Z,14.00
2018-11-10T12:02:49.209Z,14.00
2018-11-10T12:05:19.115Z,14.00
2018-11-10T12:07:48.769Z,14.10
2018-11-10T12:10:18.896Z,14.20
2018-11-10T12:12:48.645Z,14.20
2018-11-10T12:15:20.198Z,14.20
2018-11-10T12:17:51.599Z,14.30
2018-11-10T12:20:21.280Z,14.50
2018-11-10T12:22:51.573Z,14.40
2018-11-10T12:25:21.728Z,14.40
2018-11-10T12:27:51.581Z,14.40
2018-11-10T12:30:21.575Z,14.40
2018-11-10T12:32:51.721Z,14.30
2018-11-10T12:35:21.677Z,14.30
2018-11-10T12:37:51.517Z,14.40
2018-11-10T12:40:21.203Z,14.40
2018-11-10T12:42:51.738Z,14.60
2018-11-10T12:45:21.526Z,14.50
2018-11-10T12:47:51.232Z,14.50
2018-11-10T12:50:21.297Z,14.50
2018-11-10T12:52:51.514Z,14.50
2018-11-10T12:55:21.358Z,14.50
2018-11-10T12:57:51.796Z,14.50
2018-11-10T13:00:21.764Z,14.60
2018-11-10T13:02:52.385Z,14.70
2018-11-10T13:05:22.299Z,14.70
2018-11-10T13:07:51.800Z,14.70
2018-11-10T13:10:21.561Z,14.80
2018-11-10T13:12:51.277Z,14.80
2018-11-10T13:15:21.072Z,14.80
2018-11-10T13:17:51.568Z,14.80
2018-11-10T13:20:21.316Z,14.70
2018-11-10T13:22:51.216Z,14.70
2018-11-10T13:25:21.264Z,14.70
2018-11-10T13:27:51.215Z,14.70
2018-11-10T13:30:22.894Z,14.60
2018-11-10T13:32:52.619Z,14.70
2018-11-10T13:35:26.912Z,14.50
2018-11-10T13:37:57.178Z,14.50
2018-11-10T13:40:27.113Z,14.40
2018-11-10T13:42:56.534Z,14.30
2018-11-10T13:45:26.547Z,14.30
2018-11-10T13:47:56.256Z,14.30
2018-11-10T13:50:26.049Z,14.30
2018-11-10T13:52:56.490Z,14.20
2018-11-10T13:55:26.031Z,14.00
2018-11-10T13:57:56.160Z,14.10
2018-11-10T14:00:26.273Z,14.10
2018-11-10T14:02:56.341Z,14.00
2018-11-10T14:05:26.552Z,14.10
2018-11-10T14:07:56.618Z,14.00
2018-11-10T14:10:26.433Z,14.00
2018-11-10T14:12:56.459Z,14.10
2018-11-10T14:15:26.307Z,14.00
2018-11-10T14:17:56.436Z,14.00
2018-11-10T14:20:26.215Z,14.00
2018-11-10T14:22:56.164Z,14.10
2018-11-10T14:25:26.227Z,14.10
2018-11-10T14:27:56.214Z,14.10
2018-11-10T14:30:26.978Z,14.10
2018-11-10T14:32:56.469Z,14.10
2018-11-10T14:35:26.213Z,14.10
2018-11-10T14:37:56.098Z,14.10
2018-11-10T14:40:26.023Z,14.10
2018-11-10T14:42:56.293Z,14.10
2018-11-10T14:45:26.163Z,14.10
2018-11-10T14:47:56.420Z,14.10
2018-11-10T14:50:26.133Z,13.90
2018-11-10T14:52:56.136Z,13.90
2018-11-10T14:55:25.916Z,13.80
2018-11-10T14:57:55.602Z,13.80
2018-11-10T15:00:26.593Z,13.80
2018-11-10T15:02:55.945Z,13.90
2018-11-10T15:05:25.298Z,13.80
2018-11-10T15:07:54.392Z,13.80
2018-11-10T15:10:23.604Z,13.80
2018-11-10T15:12:53.112Z,13.90
2018-11-10T15:15:22.381Z,14.00
2018-11-10T15:17:51.677Z,13.90
2018-11-10T15:20:20.886Z,14.00
2018-11-10T15:22:50.167Z,14.10
2018-11-10T15:25:20.847Z,14.10
2018-11-10T15:27:50.154Z,14.10
2018-11-10T15:30:20.707Z,14.10
2018-11-10T15:32:50.211Z,14.10
2018-11-10T15:35:21.343Z,14.10
2018-11-10T15:37:51.666Z,14.10
2018-11-10T15:40:21.426Z,14.10
2018-11-10T15:42:50.520Z,14.20
2018-11-10T15:45:20.353Z,14.10
2018-11-10T15:47:49.668Z,14.20
2018-11-10T15:50:19.283Z,14.10
2018-11-10T15:52:48.470Z,14.30
2018-11-10T15:55:17.615Z,14.30
2018-11-10T15:57:46.700Z,14.30
2018-11-10T16:00:18.247Z,14.30
2018-11-10T16:02:47.440Z,14.30
2018-11-10T16:05:16.840Z,14.30
2018-11-10T16:07:46.038Z,14.40
2018-11-10T16:10:15.583Z,14.40
2018-11-10T16:12:44.730Z,14.40
2018-11-10T16:15:15.260Z,14.40
2018-11-10T16:17:45.006Z,14.40
2018-11-10T16:20:15.825Z,14.40
2018-11-10T16:22:47.108Z,14.40
2018-11-10T16:25:16.587Z,14.40
2018-11-10T16:27:46.101Z,14.50
2018-11-10T16:30:16.627Z,14.40
2018-11-10T16:32:46.126Z,14.30
2018-11-10T16:35:15.457Z,14.30
2018-11-10T16:37:47.222Z,14.20
2018-11-10T16:40:19.659Z,14.30
2018-11-10T16:42:52.943Z,14.30
2018-11-10T16:45:22.534Z,14.30
2018-11-10T16:47:51.778Z,14.30
2018-11-10T16:50:20.988Z,14.30
2018-11-10T16:52:50.239Z,14.10
2018-11-10T16:55:19.614Z,14.20
2018-11-10T16:57:48.822Z,14.00
2018-11-10T17:00:19.128Z,14.10
2018-11-10T17:02:48.556Z,14.00
2018-11-10T17:05:17.752Z,13.90
2018-11-10T17:07:46.990Z,13.90
2018-11-10T17:10:17.594Z,13.90
2018-11-10T17:12:47.016Z,13.70
2018-11-10T17:15:16.287Z,13.80
2018-11-10T17:17:45.598Z,13.70
2018-11-10T17:20:16.647Z,13.70
2018-11-10T17:22:46.186Z,13.60
2018-11-10T17:25:16.001Z,13.60
2018-11-10T17:27:45.302Z,13.60
2018-11-10T17:30:15.961Z,13.60
2018-11-10T17:32:45.214Z,13.40
2018-11-10T17:35:14.866Z,13.40
2018-11-10T17:37:44.358Z,13.40
2018-11-10T17:40:14.218Z,13.50
2018-11-10T17:42:43.418Z,13.40
2018-11-10T17:45:15.976Z,13.50
2018-11-10T17:47:45.714Z,13.50
2018-11-10T17:50:16.256Z,13.40
2018-11-10T17:52:45.606Z,13.50
2018-11-10T17:55:15.904Z,13.50
2018-11-10T17:57:45.635Z,13.50
2018-11-10T18:00:14.880Z,13.50
2018-11-10T18:02:44.161Z,13.50
2018-11-10T18:05:14.574Z,13.50
2018-11-10T18:07:44.161Z,13.50
2018-11-10T18:10:14.824Z,13.50
2018-11-10T18:12:46.003Z,13.50
2018-11-10T18:15:15.860Z,13.50
2018-11-10T18:17:45.369Z,13.60
2018-11-10T18:20:15.865Z,13.50
2018-11-10T18:22:45.878Z,13.60
2018-11-10T18:25:15.401Z,13.60
2018-11-10T18:27:44.718Z,13.60
2018-11-10T18:30:15.150Z,13.60
2018-11-10T18:32:45.105Z,13.50
2018-11-10T18:35:14.776Z,13.50
2018-11-10T18:37:44.482Z,13.40
2018-11-10T18:40:13.847Z,13.50
2018-11-10T18:42:43.176Z,13.60
2018-11-10T18:45:12.898Z,13.60
2018-11-10T18:47:43.019Z,13.60
2018-11-10T18:50:13.948Z,13.50
2018-11-10T18:52:43.347Z,13.50
2018-11-10T18:55:13.751Z,13.50
2018-11-10T18:57:43.496Z,13.50
2018-11-10T19:00:14.275Z,13.60
2018-11-10T19:02:44.083Z,13.60
2018-11-10T19:05:14.857Z,13.70
2018-11-10T19:07:44.734Z,13.70
2018-11-10T19:10:15.448Z,13.70
2018-11-10T19:12:44.964Z,13.60
2018-11-10T19:15:16.741Z,13.60
2018-11-10T19:17:46.033Z,13.60
2018-11-10T19:20:15.984Z,13.60
2018-11-10T19:22:45.362Z,13.60
2018-11-10T19:25:15.076Z,13.60
2018-11-10T19:27:44.448Z,13.70
2018-11-10T19:30:19.386Z,13.60
2018-11-10T19:32:49.538Z,13.60
2018-11-10T19:35:19.359Z,13.50
2018-11-10T19:37:48.777Z,13.50
2018-11-10T19:40:18.219Z,13.50
2018-11-10T19:42:48.153Z,13.40
2018-11-10T19:45:17.449Z,13.50
2018-11-10T19:47:47.418Z,13.40
2018-11-10T19:50:17.101Z,13.50
2018-11-10T19:52:46.677Z,13.40
2018-11-10T19:55:17.005Z,13.50
2018-11-10T19:57:46.343Z,13.40
2018-11-10T20:00:18.521Z,13.50
2018-11-10T20:02:47.921Z,13.60
2018-11-10T20:05:17.749Z,13.50
2018-11-10T20:07:47.095Z,13.60
2018-11-10T20:10:16.390Z,13.50
2018-11-10T20:12:46.320Z,13.50
2018-11-10T20:15:16.373Z,13.50
2018-11-10T20:17:45.997Z,13.60
2018-11-10T20:20:17.081Z,13.60
2018-11-10T20:22:46.377Z,13.70
2018-11-10T20:25:17.111Z,13.60
2018-11-10T20:27:46.309Z,13.70
2018-11-10T20:30:17.847Z,13.70
2018-11-10T20:32:47.115Z,13.70
2018-11-10T20:35:16.379Z,13.70
2018-11-10T20:37:46.314Z,13.70
2018-11-10T20:40:16.223Z,13.70
2018-11-10T20:42:45.404Z,13.70
2018-11-10T20:45:16.423Z,13.70
2018-11-10T20:47:45.926Z,13.70
2018-11-10T20:50:15.678Z,13.70
2018-11-10T20:52:44.932Z,13.60
2018-11-10T20:55:14.772Z,13.60
2018-11-10T20:57:44.047Z,13.50
2018-11-10T21:00:15.085Z,13.60
2018-11-10T21:02:44.582Z,13.60
2018-11-10T21:05:14.279Z,13.50
2018-11-10T21:07:43.458Z,13.50
2018-11-10T21:10:20.515Z,13.50
2018-11-10T21:12:50.419Z,13.60
2018-11-10T21:15:20.266Z,13.50
2018-11-10T21:17:49.652Z,13.60
2018-11-10T21:20:18.934Z,13.50
2018-11-10T21:22:48.179Z,13.50
2018-11-10T21:25:18.167Z,13.50
2018-11-10T21:27:47.964Z,13.60
2018-11-10T21:30:18.748Z,13.50
2018-11-10T21:32:48.619Z,13.50
2018-11-10T21:35:18.006Z,13.50
2018-11-10T21:37:47.123Z,13.50
2018-11-10T21:40:17.935Z,13.50
2018-11-10T21:42:47.321Z,13.60
2018-11-10T21:45:17.383Z,13.50
2018-11-10T21:47:47.002Z,13.60
2018-11-10T21:50:18.531Z,13.50
2018-11-10T21:52:47.885Z,13.60
2018-11-10T21:55:18.477Z,13.50
2018-11-10T21:57:48.419Z,13.60
2018-11-10T22:00:19.490Z,13.60
2018-11-10T22:02:49.103Z,13.60
2018-11-10T22:05:18.751Z,13.50
2018-11-10T22:07:48.205Z,13.50
2018-11-10T22:10:18.575Z,13.60
2018-11-10T22:12:47.941Z,13.60
2018-11-10T22:15:18.485Z,13.70
2018-11-10T22:17:47.941Z,13.60
2018-11-10T22:20:18.464Z,13.50
2018-11-10T22:22:48.037Z,13.50
2018-11-10T22:25:17.795Z,13.50
2018-11-10T22:27:48.491Z,13.50
2018-11-10T22:30:19.084Z,13.50
2018-11-10T22:32:48.915Z,13.50
2018-11-10T22:35:18.611Z,13.40
2018-11-10T22:37:47.923Z,13.50
2018-11-10T22:40:18.729Z,13.50
2018-11-10T22:42:48.315Z,13.40
2018-11-10T22:45:19.734Z,13.50
2018-11-10T22:47:49.056Z,13.50
2018-11-10T22:50:19.539Z,13.50
2018-11-10T22:52:48.782Z,13.50
2018-11-10T22:55:18.074Z,13.50
2018-11-10T22:57:47.394Z,13.40
2018-11-10T23:00:19.922Z,13.40
2018-11-10T23:02:51.374Z,13.40
2018-11-10T23:05:21.263Z,13.40
2018-11-10T23:07:50.812Z,13.40
2018-11-10T23:10:20.514Z,13.30
2018-11-10T23:12:50.992Z,13.30
2018-11-10T23:15:20.282Z,13.40
2018-11-10T23:17:49.566Z,13.20
2018-11-10T23:20:19.402Z,13.20
2018-11-10T23:22:48.596Z,13.30
2018-11-10T23:25:18.834Z,13.30
2018-11-10T23:27:48.559Z,13.30
2018-11-10T23:30:22.114Z,13.40
2018-11-10T23:32:51.353Z,13.40
2018-11-10T23:35:20.702Z,13.30
2018-11-10T23:37:50.154Z,13.30
2018-11-10T23:40:19.366Z,13.30
2018-11-10T23:42:48.536Z,13.30
2018-11-10T23:45:17.856Z,13.30
2018-11-10T23:47:47.498Z,13.30
2018-11-10T23:50:18.002Z,13.20
2018-11-10T23:52:47.414Z,13.20
2018-11-10T23:55:17.398Z,13.30
2018-11-10T23:57:46.708Z,13.30
